Time;durP1;ratioP1;P1;durP2;ratioP2;P2;SDS_P1;SDS_P2;PMS_P1;PMS_P2;Temp;Humidity;BMP_temperature;BMP_pressure;BME280_temperature;BME280_humidity;BME280_pressure;Samples;Min_cycle;Max_cycle;Signal;HPM_P1;HPM_P2
2022/05/31 00:00:32;;;;;;;8.30;6.78;;;7.90;99.90;;;;;;5034652;28;20061;-87
2022/05/31 00:02:58;;;;;;;9.93;7.38;;;9.90;99.90;;;;;;5017681;28;20400;-87
2022/05/31 00:05:25;;;;;;;8.07;7.13;;;7.80;99.90;;;;;;5033956;28;20416;-87
2022/05/31 00:07:51;;;;;;;7.30;6.60;;;8.10;99.90;;;;;;5034354;28;20484;-87
2022/05/31 00:10:17;;;;;;;8.35;6.85;;;8.30;99.90;;;;;;5017267;28;20053;-89
2022/05/31 00:12:43;;;;;;;8.02;6.70;;;7.80;99.90;;;;;;5018115;28;20060;-87
2022/05/31 00:15:10;;;;;;;9.48;7.22;;;8.00;99.90;;;;;;5034542;28;20670;-87
2022/05/31 00:17:36;;;;;;;7.28;5.88;;;7.80;99.90;;;;;;5017197;28;20080;-87
2022/05/31 00:20:04;;;;;;;10.32;6.93;;;7.80;99.90;;;;;;5034168;28;20048;-86
2022/05/31 00:22:30;;;;;;;7.35;6.60;;;7.70;99.90;;;;;;5034095;28;20083;-86
2022/05/31 00:24:56;;;;;;;8.02;6.97;;;7.80;99.90;;;;;;5017953;28;20054;-86
2022/05/31 00:27:22;;;;;;;7.10;6.50;;;8.40;99.90;;;;;;5033897;28;20106;-87
2022/05/31 00:29:48;;;;;;;10.23;6.90;;;7.80;99.90;;;;;;5034142;28;20099;-88
2022/05/31 00:32:15;;;;;;;7.85;7.05;;;7.80;99.90;;;;;;5016149;28;20084;-88
2022/05/31 00:34:43;;;;;;;7.65;6.95;;;7.70;99.90;;;;;;5016192;28;20067;-86
2022/05/31 00:37:09;;;;;;;8.73;6.82;;;7.70;99.90;;;;;;5034087;28;20088;-87
2022/05/31 00:39:34;;;;;;;9.13;7.47;;;8.70;99.90;;;;;;5017259;28;20084;-86
2022/05/31 00:42:03;;;;;;;8.23;7.38;;;8.30;99.90;;;;;;5033414;28;20128;-87
2022/05/31 00:44:29;;;;;;;9.25;7.18;;;7.80;99.90;;;;;;5033242;28;20107;-87
2022/05/31 00:47:03;;;;;;;8.10;7.30;;;7.80;99.90;;;;;;5033870;28;20439;-88
2022/05/31 00:49:52;;;;;;;8.05;7.20;;;7.80;99.90;;;;;;5033566;28;20053;-87
2022/05/31 00:52:29;;;;;;;9.38;7.15;;;7.80;99.90;;;;;;5016306;28;20057;-89
2022/05/31 00:55:00;;;;;;;7.95;7.15;;;7.90;99.90;;;;;;5032865;28;20045;-88
2022/05/31 00:57:26;;;;;;;7.97;7.18;;;7.90;99.90;;;;;;5033327;28;20149;-88
2022/05/31 00:59:54;;;;;;;10.02;7.47;;;7.90;99.90;;;;;;5033643;28;20123;-87
2022/05/31 01:02:20;;;;;;;9.50;7.82;;;8.00;99.90;;;;;;5033671;28;20051;-87
2022/05/31 01:04:49;;;;;;;9.43;7.60;;;8.90;99.90;;;;;;5033436;28;20041;-87
2022/05/31 01:07:16;;;;;;;11.30;8.35;;;8.10;99.90;;;;;;5056198;28;20091;-89
2022/05/31 01:09:41;;;;;;;11.63;8.95;;;8.40;99.90;;;;;;5035021;28;20053;-87
2022/05/31 01:12:07;;;;;;;9.57;8.27;;;8.30;99.90;;;;;;5034705;28;20140;-88
2022/05/31 01:14:33;;;;;;;9.25;8.35;;;8.20;99.90;;;;;;5016848;28;20542;-87
2022/05/31 01:17:06;;;;;;;10.13;8.52;;;9.50;99.90;;;;;;5032109;28;20041;-88
2022/05/31 01:22:18;;;;;;;11.45;9.00;;;9.10;99.90;;;;;;5036361;28;20139;-87
2022/05/31 01:25:15;;;;;;;10.52;9.45;;;8.90;99.90;;;;;;5033250;28;20131;-87
2022/05/31 01:27:46;;;;;;;10.05;8.90;;;8.40;99.90;;;;;;5004708;28;20487;-88
2022/05/31 01:30:11;;;;;;;10.07;8.90;;;8.40;99.90;;;;;;5017287;28;20053;-87
2022/05/31 01:32:41;;;;;;;9.63;8.07;;;8.40;99.90;;;;;;5033051;28;20045;-87
2022/05/31 01:35:15;;;;;;;8.50;7.68;;;10.10;99.90;;;;;;5033618;28;20404;-87
2022/05/31 01:37:50;;;;;;;10.40;8.90;;;8.40;99.90;;;;;;5033030;28;20049;-87
2022/05/31 01:40:26;;;;;;;9.35;8.45;;;8.40;99.90;;;;;;5036450;28;20141;-87
2022/05/31 01:42:51;;;;;;;9.40;8.38;;;8.50;99.90;;;;;;5033713;28;20084;-87
2022/05/31 01:45:23;;;;;;;10.82;9.27;;;9.30;99.90;;;;;;5016803;28;20088;-89
2022/05/31 01:47:49;;;;;;;9.98;8.98;;;9.90;99.90;;;;;;5017134;28;20092;-87
2022/05/31 01:50:18;;;;;;;10.85;8.68;;;8.40;99.90;;;;;;5033521;28;20131;-87
2022/05/31 01:52:44;;;;;;;9.45;8.45;;;8.50;99.90;;;;;;5032749;28;20554;-87
2022/05/31 01:55:10;;;;;;;9.57;8.52;;;9.70;99.90;;;;;;5019798;28;20053;-87
2022/05/31 01:57:35;;;;;;;11.95;10.00;;;8.50;99.90;;;;;;5036749;28;20076;-87
2022/05/31 02:00:07;;;;;;;11.55;9.57;;;8.40;99.90;;;;;;5004621;28;20053;-87
2022/05/31 02:02:32;;;;;;;11.55;10.25;;;8.50;99.90;;;;;;5020508;28;20088;-87
2022/05/31 02:04:59;;;;;;;12.02;10.45;;;8.40;99.90;;;;;;5036691;28;20083;-86
2022/05/31 02:07:25;;;;;;;12.43;10.65;;;8.50;99.90;;;;;;5036391;28;20060;-88
2022/05/31 02:09:52;;;;;;;13.65;10.60;;;9.80;99.90;;;;;;5020283;28;20110;-87
2022/05/31 02:12:18;;;;;;;12.80;10.55;;;8.50;99.90;;;;;;5004395;28;20060;-87
2022/05/31 02:14:44;;;;;;;11.85;10.45;;;8.50;99.90;;;;;;5003529;28;20127;-87
2022/05/31 02:17:10;;;;;;;10.75;9.55;;;8.50;99.90;;;;;;5005973;28;20044;-88
2022/05/31 02:19:38;;;;;;;10.90;9.80;;;8.50;99.90;;;;;;5024355;28;20049;-87
2022/05/31 02:22:06;;;;;;;14.05;9.60;;;8.70;99.90;;;;;;5039688;28;20045;-87
2022/05/31 02:24:32;;;;;;;11.30;9.98;;;8.40;99.90;;;;;;5033166;28;20385;-87
2022/05/31 02:26:58;;;;;;;10.27;9.27;;;10.40;99.90;;;;;;5020134;28;20064;-86
2022/05/31 02:29:26;;;;;;;12.77;9.82;;;8.90;99.90;;;;;;5001181;28;20038;-88
2022/05/31 02:31:51;;;;;;;11.20;9.98;;;10.10;99.90;;;;;;4984674;28;20096;-87
2022/05/31 02:34:20;;;;;;;11.50;9.32;;;9.60;99.90;;;;;;5001426;28;20094;-87
2022/05/31 02:36:47;;;;;;;11.73;9.80;;;8.70;99.90;;;;;;5017119;28;20477;-86
2022/05/31 02:39:12;;;;;;;9.77;8.80;;;8.50;99.90;;;;;;4984971;28;20046;-88
2022/05/31 02:41:38;;;;;;;10.68;9.43;;;8.40;99.90;;;;;;4984332;28;20061;-87
2022/05/31 02:44:04;;;;;;;9.50;8.70;;;8.50;99.90;;;;;;5017428;28;20393;-86
2022/05/31 02:46:30;;;;;;;9.30;8.50;;;8.50;99.90;;;;;;5017066;28;20499;-86
2022/05/31 02:48:55;;;;;;;10.45;9.35;;;8.50;99.90;;;;;;5000459;28;20053;-88
2022/05/31 02:51:21;;;;;;;11.15;9.38;;;9.40;99.90;;;;;;4984270;28;20045;-87
2022/05/31 02:53:47;;;;;;;12.48;10.77;;;8.50;99.90;;;;;;5016715;28;20049;-87
2022/05/31 02:56:12;;;;;;;10.98;9.88;;;8.60;99.90;;;;;;5015768;28;20041;-87
2022/05/31 02:58:38;;;;;;;10.90;9.75;;;9.20;99.90;;;;;;4997164;28;20055;-91
2022/05/31 03:01:23;;;;;;;10.77;9.68;;;8.60;99.90;;;;;;5030382;28;20042;-88
2022/05/31 03:03:49;;;;;;;11.55;10.02;;;8.50;99.90;;;;;;4996989;28;20401;-87
2022/05/31 03:06:15;;;;;;;12.02;9.93;;;8.60;99.90;;;;;;4998411;28;20050;-86
2022/05/31 03:08:41;;;;;;;11.55;10.27;;;8.60;99.90;;;;;;5015547;28;20566;-88
2022/05/31 03:11:09;;;;;;;14.23;10.02;;;9.30;99.90;;;;;;5015914;28;20403;-88
2022/05/31 03:13:34;;;;;;;11.77;9.68;;;9.10;99.90;;;;;;5023747;28;20045;-87
2022/05/31 03:16:01;;;;;;;11.00;9.90;;;8.50;99.90;;;;;;5015942;28;20327;-86
2022/05/31 03:18:29;;;;;;;13.50;10.48;;;8.50;99.90;;;;;;5000992;28;20045;-88
2022/05/31 03:20:56;;;;;;;11.50;10.32;;;8.50;99.90;;;;;;5016101;28;20102;-86
2022/05/31 03:23:25;;;;;;;12.35;11.00;;;8.50;99.90;;;;;;4999957;28;20049;-88
2022/05/31 03:25:51;;;;;;;13.38;11.45;;;8.50;99.90;;;;;;5016353;28;20041;-87
2022/05/31 03:28:17;;;;;;;12.82;11.32;;;8.50;99.90;;;;;;5016441;28;20049;-87
2022/05/31 03:30:42;;;;;;;13.73;10.85;;;9.00;99.90;;;;;;5002251;28;20203;-92
2022/05/31 03:33:09;;;;;;;12.27;11.07;;;8.50;99.90;;;;;;5031400;28;20405;-88
2022/05/31 03:35:35;;;;;;;10.82;9.73;;;8.50;99.90;;;;;;4999712;28;20049;-87
2022/05/31 03:38:01;;;;;;;12.30;10.88;;;8.50;99.90;;;;;;5015559;28;20507;-87
2022/05/31 03:43:11;;;;;;;11.00;9.88;;;8.60;99.90;;;;;;5018424;28;20102;-87
2022/05/31 03:45:41;;;;;;;11.15;9.45;;;8.60;99.90;;;;;;5032192;28;20132;-87
2022/05/31 03:48:07;;;;;;;12.48;10.57;;;8.60;99.90;;;;;;4982963;28;20052;-88
2022/05/31 03:50:33;;;;;;;11.52;10.40;;;8.60;99.90;;;;;;4983236;28;20049;-87
2022/05/31 03:52:58;;;;;;;12.20;11.00;;;8.80;99.90;;;;;;4999140;28;20037;-87
2022/05/31 03:55:24;;;;;;;11.35;10.25;;;8.60;99.90;;;;;;4999210;28;20045;-87
2022/05/31 03:57:51;;;;;;;11.82;10.73;;;8.50;99.90;;;;;;5014729;28;20044;-87
2022/05/31 04:00:17;;;;;;;11.07;10.05;;;8.50;99.90;;;;;;4999144;28;20045;-87
2022/05/31 04:02:43;;;;;;;13.48;11.15;;;8.40;99.90;;;;;;4998492;28;20107;-87
2022/05/31 04:05:09;;;;;;;11.95;10.45;;;8.50;99.90;;;;;;4982338;28;20045;-87
2022/05/31 04:07:35;;;;;;;12.25;10.95;;;8.50;99.90;;;;;;5012496;28;20065;-87
2022/05/31 04:10:04;;;;;;;12.77;11.45;;;8.50;99.90;;;;;;4998325;28;20041;-88
2022/05/31 04:12:31;;;;;;;12.98;9.85;;;8.50;99.90;;;;;;5015291;28;20100;-86
2022/05/31 04:14:57;;;;;;;11.30;10.15;;;8.60;99.90;;;;;;4998552;28;20099;-87
2022/05/31 04:17:23;;;;;;;10.18;9.18;;;8.60;99.90;;;;;;4982397;28;20049;-87
2022/05/31 04:19:48;;;;;;;9.15;8.25;;;8.70;99.90;;;;;;5015051;28;20041;-88
2022/05/31 04:22:14;;;;;;;9.13;8.23;;;8.80;99.90;;;;;;4998549;28;20202;-88
2022/05/31 04:24:40;;;;;;;9.55;8.35;;;8.80;99.90;;;;;;5014995;28;20053;-87
2022/05/31 04:27:06;;;;;;;9.38;8.48;;;9.50;99.90;;;;;;4998654;28;20103;-88
2022/05/31 04:29:32;;;;;;;9.93;8.55;;;8.90;99.90;;;;;;4982909;28;20052;-87
2022/05/31 04:31:57;;;;;;;10.02;8.85;;;8.80;99.90;;;;;;5031261;28;20050;-87
2022/05/31 04:34:23;;;;;;;10.65;9.55;;;9.70;99.90;;;;;;5029929;28;20045;-87
2022/05/31 04:36:51;;;;;;;11.07;9.75;;;10.90;99.90;;;;;;5013412;28;20077;-88
2022/05/31 04:39:17;;;;;;;9.68;8.75;;;8.90;99.90;;;;;;4982486;28;20107;-87
2022/05/31 04:41:43;;;;;;;10.80;9.70;;;9.70;99.90;;;;;;4997886;28;20049;-87
2022/05/31 04:44:08;;;;;;;10.80;9.55;;;9.00;99.90;;;;;;5030230;28;20089;-87
2022/05/31 04:46:34;;;;;;;12.65;9.52;;;9.90;99.90;;;;;;4997551;28;20046;-87
2022/05/31 04:49:02;;;;;;;11.07;9.10;;;9.10;99.90;;;;;;4997379;28;20095;-88
2022/05/31 04:51:29;;;;;;;9.70;8.80;;;9.50;99.90;;;;;;4998143;28;20053;-87
2022/05/31 04:53:54;;;;;;;13.63;9.73;;;9.10;99.90;;;;;;4997663;28;20057;-88
2022/05/31 04:56:20;;;;;;;10.82;9.23;;;9.20;99.90;;;;;;5013800;28;20045;-87
2022/05/31 04:58:47;;;;;;;9.75;8.70;;;9.10;99.90;;;;;;4981581;28;20401;-89
2022/05/31 05:01:15;;;;;;;11.70;9.43;;;9.20;99.90;;;;;;4981174;28;20053;-88
2022/05/31 05:03:41;;;;;;;9.52;8.52;;;9.10;99.90;;;;;;4981576;28;20516;-88
2022/05/31 05:06:08;;;;;;;12.70;9.02;;;9.20;99.90;;;;;;4997187;28;20056;-88
2022/05/31 05:08:34;;;;;;;10.57;8.93;;;9.20;99.90;;;;;;4997499;28;20452;-87
2022/05/31 05:11:01;;;;;;;11.77;9.82;;;9.20;99.90;;;;;;4997458;28;20050;-87
2022/05/31 05:13:27;;;;;;;11.85;9.77;;;9.20;99.90;;;;;;4997294;28;20080;-88
2022/05/31 05:15:54;;;;;;;11.05;9.88;;;9.80;99.90;;;;;;4997535;28;20045;-87
2022/05/31 05:18:21;;;;;;;10.63;8.98;;;9.50;99.90;;;;;;4997558;28;20481;-88
2022/05/31 05:20:46;;;;;;;11.68;10.23;;;9.50;99.90;;;;;;5018217;28;20068;-88
2022/05/31 05:23:14;;;;;;;10.85;9.65;;;9.50;99.90;;;;;;5053087;28;20053;-88
2022/05/31 05:25:40;;;;;;;11.20;9.75;;;9.60;99.90;;;;;;5031124;28;20077;-87
2022/05/31 05:30:50;;;;;;;;;;;8.10;99.90;;;;;;5023182;28;20041;-87
2022/05/31 05:33:15;;;;;;;10.85;9.82;;;9.80;99.90;;;;;;5033182;28;20364;-87
2022/05/31 05:35:44;;;;;;;10.77;9.10;;;10.00;99.90;;;;;;4983151;28;20045;-86
2022/05/31 05:38:10;;;;;;;11.75;10.10;;;9.90;99.90;;;;;;4998742;28;20107;-88
2022/05/31 05:40:35;;;;;;;11.15;9.20;;;10.00;99.90;;;;;;5014680;28;20428;-88
2022/05/31 05:43:03;;;;;;;11.32;9.20;;;10.00;99.90;;;;;;5015995;28;20084;-87
2022/05/31 05:45:31;;;;;;;9.70;8.70;;;11.90;99.90;;;;;;5015049;28;20041;-87
2022/05/31 05:47:56;;;;;;;10.43;9.23;;;10.10;99.90;;;;;;4981525;28;20041;-87
2022/05/31 05:50:27;;;;;;;9.93;8.20;;;9.90;99.90;;;;;;4999877;28;20129;-89
2022/05/31 05:53:06;;;;;;;9.77;8.77;;;10.40;99.90;;;;;;5012280;28;20126;-91
2022/05/31 05:55:34;;;;;;;9.75;8.75;;;8.70;99.90;;;;;;4998557;28;20128;-90
2022/05/31 05:58:02;;;;;;;9.80;8.82;;;10.60;99.90;;;;;;5002832;28;20037;-88
2022/05/31 06:00:29;;;;;;;10.02;9.02;;;10.50;99.90;;;;;;5017736;28;20515;-90
2022/05/31 06:03:19;;;;;;;10.85;8.50;;;10.50;99.90;;;;;;5017430;28;20045;-92
2022/05/31 06:05:46;;;;;;;10.57;9.45;;;10.80;99.90;;;;;;5015553;28;20049;-89
2022/05/31 06:08:20;;;;;;;11.23;8.93;;;10.60;99.90;;;;;;5032345;28;20084;-90
2022/05/31 06:11:02;;;;;;;9.63;8.70;;;10.70;99.90;;;;;;5017316;28;20079;-90
2022/05/31 06:13:31;;;;;;;11.40;8.82;;;10.90;99.90;;;;;;5014025;28;20059;-90
2022/05/31 06:16:00;;;;;;;9.55;8.73;;;11.00;99.90;;;;;;5033401;28;20056;-90
2022/05/31 06:18:50;;;;;;;8.70;7.80;;;10.80;99.90;;;;;;5016486;28;20080;-91
2022/05/31 06:21:15;;;;;;;8.82;7.93;;;11.00;99.90;;;;;;5032770;28;20068;-89
2022/05/31 06:23:44;;;;;;;9.45;7.22;;;11.00;99.90;;;;;;5017762;28;20481;-92
2022/05/31 06:26:17;;;;;;;10.80;7.50;;;11.20;99.90;;;;;;5015930;28;20045;-91
2022/05/31 06:28:46;;;;;;;8.95;8.15;;;9.60;99.90;;;;;;5037953;28;20462;-90
2022/05/31 06:31:13;;;;;;;14.80;7.97;;;11.40;99.90;;;;;;5031261;28;20084;-91
2022/05/31 06:33:41;;;;;;;8.68;7.78;;;11.40;99.90;;;;;;5030372;28;20057;-92
2022/05/31 06:36:07;;;;;;;8.00;7.30;;;11.30;99.90;;;;;;5020989;28;20052;-93
2022/05/31 06:38:36;;;;;;;8.35;7.47;;;11.40;99.90;;;;;;5016789;28;20045;-92
2022/05/31 06:41:02;;;;;;;8.80;7.40;;;11.60;99.90;;;;;;5013517;28;20045;-93
2022/05/31 06:43:30;;;;;;;8.13;7.32;;;12.20;99.90;;;;;;5019913;28;20056;-91
2022/05/31 06:46:05;;;;;;;7.75;6.95;;;11.90;99.90;;;;;;5036565;28;20045;-91
2022/05/31 06:48:31;;;;;;;10.20;6.95;;;11.90;99.90;;;;;;5008633;28;20045;-90
2022/05/31 06:51:03;;;;;;;6.85;6.18;;;11.90;99.90;;;;;;5037336;28;20053;-89
2022/05/31 06:59:00;;;;;;;7.32;6.13;;;12.70;99.90;;;;;;5055180;28;20045;-92
2022/05/31 07:01:31;;;;;;;8.38;6.40;;;13.10;99.90;;;;;;5038767;28;20094;-94
2022/05/31 07:04:06;;;;;;;7.18;6.47;;;13.30;99.90;;;;;;5021364;28;20059;-90
2022/05/31 07:06:37;;;;;;;6.57;5.78;;;13.50;99.90;;;;;;5019469;28;20057;-93
2022/05/31 07:09:05;;;;;;;6.40;5.63;;;13.80;99.90;;;;;;5004062;28;20484;-91
2022/05/31 07:11:33;;;;;;;8.23;5.80;;;14.30;99.90;;;;;;5018381;28;20503;-89
2022/05/31 07:14:08;;;;;;;8.02;5.18;;;14.40;99.90;;;;;;5034320;28;20041;-91
2022/05/31 07:16:33;;;;;;;5.82;5.28;;;14.50;99.90;;;;;;5018123;28;20044;-90
2022/05/31 07:18:59;;;;;;;5.93;5.20;;;14.70;99.90;;;;;;5018106;28;20098;-88
2022/05/31 07:21:25;;;;;;;7.13;5.95;;;14.90;99.90;;;;;;5034730;28;20501;-90
2022/05/31 07:23:53;;;;;;;6.82;5.18;;;15.40;99.90;;;;;;5034342;28;20049;-91
2022/05/31 07:26:22;;;;;;;6.70;5.40;;;15.60;99.90;;;;;;5055438;28;20041;-92
2022/05/31 07:28:50;;;;;;;5.13;4.63;;;16.40;99.90;;;;;;5027905;28;20044;-91
2022/05/31 07:31:16;;;;;;;6.25;4.43;;;17.10;99.90;;;;;;5018875;28;20047;-89
2022/05/31 07:33:53;;;;;;;5.22;4.72;;;17.80;99.90;;;;;;5019781;28;20336;-91
2022/05/31 07:36:19;;;;;;;5.15;4.65;;;18.50;99.90;;;;;;5021029;28;20071;-93
2022/05/31 07:38:50;;;;;;;6.05;4.10;;;18.80;99.90;;;;;;5037134;28;20048;-93
2022/05/31 07:41:16;;;;;;;4.60;4.18;;;19.40;99.90;;;;;;5021801;28;20098;-95
2022/05/31 07:43:45;;;;;;;7.35;4.13;;;19.50;99.90;;;;;;5020048;28;20191;-91
2022/05/31 07:46:19;;;;;;;6.57;4.07;;;19.90;99.90;;;;;;5020239;28;20040;-91
2022/05/31 07:48:55;;;;;;;6.53;3.83;;;19.60;99.90;;;;;;5018910;28;20049;-93
2022/05/31 07:51:24;;;;;;;6.57;4.05;;;19.30;99.90;;;;;;5018350;28;20049;-92
2022/05/31 07:53:52;;;;;;;5.65;3.60;;;20.50;99.90;;;;;;5034390;28;20040;-92
2022/05/31 07:56:18;;;;;;;5.78;3.85;;;20.00;99.90;;;;;;5034737;28;20076;-93
2022/05/31 07:58:52;;;;;;;3.97;3.40;;;19.50;99.90;;;;;;5018651;28;20495;-96
2022/05/31 08:01:22;;;;;;;4.75;3.60;;;19.90;99.90;;;;;;5005045;28;20140;-91
2022/05/31 08:03:51;;;;;;;5.75;4.13;;;20.70;99.90;;;;;;5035915;28;20041;-94
2022/05/31 08:06:19;;;;;;;7.90;3.85;;;20.80;99.90;;;;;;5017093;28;20540;-94
2022/05/31 08:08:45;;;;;;;6.25;3.83;;;20.20;99.90;;;;;;5017536;28;20060;-91
2022/05/31 08:11:20;;;;;;;5.10;3.90;;;20.50;99.90;;;;;;5016282;28;20234;-94
2022/05/31 08:13:53;;;;;;;6.78;3.60;;;20.90;99.90;;;;;;5034020;28;20508;-94
2022/05/31 08:16:22;;;;;;;4.28;2.90;;;20.50;99.90;;;;;;5019868;28;20049;-93
2022/05/31 08:18:51;;;;;;;5.10;3.97;;;20.70;99.90;;;;;;5033358;28;20052;-92
2022/05/31 08:21:19;;;;;;;3.67;3.38;;;21.00;99.90;;;;;;5017366;28;20052;-92
2022/05/31 08:23:47;;;;;;;4.10;3.08;;;21.20;99.90;;;;;;5029579;28;20052;-92
2022/05/31 08:26:13;;;;;;;4.05;3.45;;;21.30;99.90;;;;;;5016874;28;20549;-93
2022/05/31 08:29:02;;;;;;;3.67;2.85;;;21.80;99.90;;;;;;5010759;28;20041;-95
2022/05/31 08:31:37;;;;;;;3.20;2.88;;;21.00;99.90;;;;;;4998802;28;20060;-93
2022/05/31 08:34:07;;;;;;;3.75;3.28;;;21.50;99.90;;;;;;5033392;28;20048;-94
2022/05/31 08:36:39;;;;;;;4.20;3.03;;;21.90;99.90;;;;;;5017179;28;20055;-94
2022/05/31 08:39:05;;;;;;;4.35;2.83;;;21.10;99.90;;;;;;5032055;28;20449;-95
2022/05/31 08:41:39;;;;;;;4.32;2.88;;;21.20;99.90;;;;;;5017338;28;20084;-94
2022/05/31 08:44:36;;;;;;;5.75;2.95;;;22.50;98.90;;;;;;5017399;28;20064;-94
2022/05/31 08:47:31;;;;;;;3.70;2.70;;;21.80;99.50;;;;;;5033785;28;20052;-94
2022/05/31 08:52:57;;;;;;;4.85;2.67;;;21.80;99.90;;;;;;5038055;28;20059;-95
2022/05/31 08:58:30;;;;;;;7.05;3.17;;;22.10;99.90;;;;;;5035845;28;20052;-95
2022/05/31 09:00:57;;;;;;;6.25;2.65;;;22.10;99.10;;;;;;5024417;28;20077;-95
2022/05/31 09:03:30;;;;;;;2.85;2.10;;;21.80;99.00;;;;;;5026807;28;20076;-92
2022/05/31 09:06:08;;;;;;;3.85;2.17;;;21.40;98.00;;;;;;5024885;28;20102;-92
2022/05/31 09:08:55;;;;;;;2.90;2.30;;;20.90;99.90;;;;;;5023109;28;20057;-92
2022/05/31 09:11:26;;;;;;;4.78;2.75;;;21.80;98.00;;;;;;5004168;28;20477;-87
2022/05/31 09:14:11;;;;;;;3.53;2.33;;;21.50;97.90;;;;;;5018545;28;20049;-90
2022/05/31 09:16:51;;;;;;;3.25;2.35;;;21.60;97.60;;;;;;5022413;28;20398;-91
2022/05/31 09:19:34;;;;;;;3.72;1.85;;;21.10;97.10;;;;;;5037346;28;20456;-94
2022/05/31 09:22:02;;;;;;;4.15;2.30;;;20.20;97.70;;;;;;5038146;28;20045;-95
2022/05/31 09:24:28;;;;;;;3.30;3.00;;;20.60;97.30;;;;;;5038460;28;20053;-93
2022/05/31 09:27:05;;;;;;;4.47;3.03;;;20.50;98.00;;;;;;5033706;28;20106;-92
2022/05/31 09:29:53;;;;;;;3.88;2.60;;;20.90;96.70;;;;;;5009677;28;20106;-91
2022/05/31 09:32:40;;;;;;;4.40;3.15;;;21.20;96.60;;;;;;5062913;28;20053;-91
2022/05/31 09:35:38;;;;;;;5.30;3.08;;;20.50;97.00;;;;;;5064877;28;20053;-89
2022/05/31 09:38:54;;;;;;;4.07;2.80;;;20.30;97.90;;;;;;5027036;28;20084;-92
2022/05/31 09:41:39;;;;;;;4.40;3.65;;;19.60;97.80;;;;;;4993946;28;20192;-91
2022/05/31 09:44:23;;;;;;;6.13;3.65;;;19.40;98.20;;;;;;5034390;28;20395;-90
2022/05/31 09:46:52;;;;;;;4.97;3.75;;;19.20;98.10;;;;;;5034201;28;20067;-93
2022/05/31 09:49:29;;;;;;;4.50;3.85;;;18.80;98.60;;;;;;5017974;28;20128;-93
2022/05/31 09:51:55;;;;;;;6.82;3.80;;;18.80;98.30;;;;;;5033950;28;20052;-94
2022/05/31 09:57:21;;;;;;;5.18;3.50;;;18.40;99.90;;;;;;5037217;28;20045;-92
2022/05/31 09:59:50;;;;;;;7.65;4.03;;;18.50;98.90;;;;;;5017615;28;20049;-93
2022/05/31 10:02:31;;;;;;;6.78;3.85;;;18.10;98.90;;;;;;5017836;28;20057;-92
2022/05/31 10:05:13;;;;;;;4.78;3.33;;;18.30;98.60;;;;;;5017545;28;20045;-91
2022/05/31 10:07:41;;;;;;;4.75;3.75;;;18.10;98.80;;;;;;5033641;28;20061;-92
2022/05/31 10:10:17;;;;;;;5.32;3.70;;;17.80;98.80;;;;;;5018059;28;20049;-92
2022/05/31 10:13:13;;;;;;;5.00;3.45;;;18.10;98.50;;;;;;5034223;28;20091;-90
2022/05/31 10:15:45;;;;;;;4.07;3.40;;;18.30;98.50;;;;;;5056002;28;20061;-94
2022/05/31 10:18:12;;;;;;;5.22;3.30;;;18.00;99.10;;;;;;5053420;28;20049;-91
2022/05/31 10:20:45;;;;;;;4.85;3.17;;;18.00;98.40;;;;;;5037268;28;20060;-91
2022/05/31 10:23:20;;;;;;;3.33;2.63;;;18.00;98.90;;;;;;5037728;28;20041;-89
2022/05/31 10:25:49;;;;;;;4.82;2.72;;;18.10;98.40;;;;;;5017784;28;20060;-91
2022/05/31 10:28:37;;;;;;;6.13;3.33;;;18.50;99.00;;;;;;5035739;28;20049;-91
2022/05/31 10:31:20;;;;;;;7.10;3.10;;;18.80;99.20;;;;;;5033397;28;20397;-91
2022/05/31 10:33:59;;;;;;;7.68;3.33;;;19.00;98.80;;;;;;5035741;28;20393;-91
2022/05/31 10:36:27;;;;;;;4.10;2.85;;;19.20;99.60;;;;;;5035086;28;20149;-93
2022/05/31 10:38:52;;;;;;;5.65;3.20;;;19.30;99.00;;;;;;5037831;28;20049;-91
2022/05/31 10:41:29;;;;;;;4.72;3.20;;;19.60;99.30;;;;;;5021157;28;20066;-91
2022/05/31 10:44:29;;;;;;;4.95;2.60;;;19.40;98.70;;;;;;5036716;28;20080;-92
2022/05/31 10:47:12;;;;;;;4.18;2.15;;;19.60;98.60;;;;;;5015332;28;20130;-89
2022/05/31 10:49:38;;;;;;;3.92;2.42;;;20.30;97.80;;;;;;5012530;28;20052;-93
2022/05/31 10:52:07;;;;;;;5.85;2.58;;;20.30;98.20;;;;;;4986850;28;20053;-94
2022/05/31 10:54:38;;;;;;;4.13;2.72;;;20.70;97.00;;;;;;5018758;28;20060;-95
2022/05/31 10:57:12;;;;;;;3.25;2.88;;;21.80;97.10;;;;;;5033917;28;20052;-93
2022/05/31 11:00:01;;;;;;;5.07;2.58;;;19.70;95.70;;;;;;5033734;28;20041;-93
2022/05/31 11:02:41;;;;;;;4.18;2.50;;;20.50;98.00;;;;;;4989490;28;20049;-95
2022/05/31 11:05:12;;;;;;;4.10;2.58;;;20.50;99.20;;;;;;5019833;28;20049;-93
2022/05/31 11:11:29;;;;;;;4.07;2.58;;;20.40;97.10;;;;;;5047263;28;20045;-93
2022/05/31 11:14:00;;;;;;;6.03;2.97;;;20.70;96.00;;;;;;4997950;28;20548;-96
2022/05/31 11:16:46;;;;;;;5.45;2.70;;;20.60;95.90;;;;;;5033193;28;20065;-94
2022/05/31 11:19:20;;;;;;;4.78;2.92;;;20.50;95.90;;;;;;5024537;28;20069;-93
2022/05/31 11:22:01;;;;;;;5.47;2.40;;;21.00;96.30;;;;;;5037767;28;20049;-93
2022/05/31 11:24:27;;;;;;;4.45;2.40;;;19.70;97.00;;;;;;5015451;28;20088;-94
2022/05/31 11:26:59;;;;;;;2.95;2.50;;;21.00;95.50;;;;;;5017190;28;20089;-94
2022/05/31 11:29:37;;;;;;;3.05;2.45;;;20.70;93.50;;;;;;5018442;28;20545;-93
2022/05/31 11:32:06;;;;;;;2.83;2.15;;;20.70;94.30;;;;;;5034456;28;20136;-92
2022/05/31 11:35:10;;;;;;;4.43;2.42;;;20.90;93.40;;;;;;5034158;28;20057;-93
2022/05/31 11:37:48;;;;;;;3.20;2.58;;;20.80;93.80;;;;;;4991168;28;20565;-92
2022/05/31 11:40:46;;;;;;;5.55;2.78;;;20.50;93.10;;;;;;5012581;28;20036;-94
2022/05/31 11:43:31;;;;;;;3.85;3.13;;;20.40;93.60;;;;;;5047309;28;20053;-93
2022/05/31 11:46:11;;;;;;;4.20;2.67;;;20.50;93.60;;;;;;5039796;28;20073;-94
2022/05/31 11:48:50;;;;;;;4.38;2.33;;;20.10;92.90;;;;;;5038541;28;20061;-92
2022/05/31 11:51:39;;;;;;;4.70;3.20;;;19.80;94.40;;;;;;5018394;28;20053;-93
2022/05/31 11:54:24;;;;;;;3.65;2.80;;;19.70;94.30;;;;;;5035411;28;20053;-93
2022/05/31 11:57:13;;;;;;;4.65;2.92;;;19.60;94.60;;;;;;5020886;28;20053;-92
2022/05/31 11:59:50;;;;;;;4.93;3.13;;;19.20;94.20;;;;;;5020139;28;20112;-91
2022/05/31 12:02:24;;;;;;;4.53;3.40;;;19.30;94.60;;;;;;5002391;28;20484;-92
2022/05/31 12:05:03;;;;;;;5.30;3.33;;;19.00;94.60;;;;;;5017269;28;20057;-90
2022/05/31 12:07:37;;;;;;;5.45;3.42;;;18.70;94.90;;;;;;4999559;28;20425;-91
2022/05/31 12:10:27;;;;;;;4.93;3.03;;;18.90;95.40;;;;;;5015406;28;20057;-91
2022/05/31 12:12:55;;;;;;;3.83;2.90;;;19.20;97.00;;;;;;5000336;28;20096;-89
2022/05/31 12:15:36;;;;;;;5.13;3.20;;;19.40;95.70;;;;;;5022301;28;20040;-92
2022/05/31 12:18:27;;;;;;;4.63;3.17;;;19.60;95.60;;;;;;5036404;28;20401;-93
2022/05/31 12:21:14;;;;;;;6.18;3.05;;;19.20;96.10;;;;;;5038471;28;20135;-95
2022/05/31 12:23:53;;;;;;;8.20;3.20;;;19.40;94.80;;;;;;4999879;28;20067;-92
2022/05/31 12:26:28;;;;;;;4.20;2.78;;;19.30;95.20;;;;;;4999522;28;20053;-93
2022/05/31 12:29:06;;;;;;;4.38;3.20;;;19.40;95.00;;;;;;5015022;28;20556;-90
2022/05/31 12:31:34;;;;;;;6.25;3.40;;;19.70;95.70;;;;;;4999876;28;20050;-92
2022/05/31 12:34:37;;;;;;;4.78;2.75;;;19.40;96.70;;;;;;5018638;28;20068;-90
2022/05/31 12:37:12;;;;;;;4.75;3.25;;;19.50;97.00;;;;;;5035797;28;20050;-91
2022/05/31 12:39:38;;;;;;;4.93;3.10;;;19.20;96.30;;;;;;5020816;28;20102;-91
2022/05/31 12:42:17;;;;;;;4.60;2.92;;;19.40;95.90;;;;;;5019626;28;20045;-92
2022/05/31 12:44:47;;;;;;;4.63;3.05;;;18.80;95.50;;;;;;5001820;28;20060;-93
2022/05/31 12:47:26;;;;;;;4.85;2.80;;;19.20;96.10;;;;;;5001616;28;20054;-94
2022/05/31 12:49:54;;;;;;;3.67;3.10;;;19.10;96.10;;;;;;5031988;28;20102;-92
2022/05/31 12:55:01;;;;;;;4.88;3.10;;;18.80;96.30;;;;;;5033510;28;20139;-91
2022/05/31 13:00:45;;;;;;;6.72;3.20;;;19.00;96.00;;;;;;5050717;28;20135;-82
2022/05/31 13:03:33;;;;;;;6.18;3.53;;;18.60;95.40;;;;;;5015982;28;20484;-90
2022/05/31 13:06:02;;;;;;;6.18;4.00;;;18.60;95.20;;;;;;5031805;28;20057;-92
2022/05/31 13:08:55;;;;;;;5.55;3.17;;;18.50;95.40;;;;;;5017758;28;20045;-92
2022/05/31 13:19:46;;;;;;;6.30;4.10;;;18.50;97.40;;;;;;5050479;28;20383;-93
2022/05/31 13:22:19;;;;;;;6.78;3.85;;;18.30;97.10;;;;;;5017669;28;20524;-94
2022/05/31 13:24:47;;;;;;;6.00;3.85;;;18.20;96.90;;;;;;5012438;28;20047;-93
2022/05/31 13:27:22;;;;;;;6.68;4.30;;;18.20;97.70;;;;;;5034628;28;20056;-94
2022/05/31 13:30:09;;;;;;;6.00;3.67;;;17.30;97.10;;;;;;4991254;28;20163;-95
2022/05/31 13:32:35;;;;;;;7.55;4.13;;;18.30;97.10;;;;;;4984027;28;20053;-92
2022/05/31 13:35:10;;;;;;;5.18;3.75;;;18.10;97.50;;;;;;5031548;28;20053;-94
2022/05/31 13:37:51;;;;;;;5.15;3.67;;;18.10;97.10;;;;;;5033049;28;20050;-91
2022/05/31 13:40:21;;;;;;;5.07;3.60;;;18.00;98.00;;;;;;4982911;28;20049;-89
2022/05/31 13:42:47;;;;;;;4.50;3.72;;;17.90;97.30;;;;;;4999381;28;20064;-93
2022/05/31 13:45:17;;;;;;;4.28;3.80;;;18.00;97.70;;;;;;5041575;28;20053;-93
2022/05/31 13:47:53;;;;;;;3.92;3.17;;;17.90;97.70;;;;;;4984561;28;20049;-88
2022/05/31 13:50:23;;;;;;;6.90;3.85;;;17.90;97.40;;;;;;5003422;28;20508;-93